Time;durP1;ratioP1;P1;durP2;ratioP2;P2;SDS_P1;SDS_P2;PMS_P1;PMS_P2;Temp;Humidity;BMP_temperature;BMP_pressure;BME280_temperature;BME280_humidity;BME280_pressure;Samples;Min_cycle;Max_cycle;Signal;HPM_P1;HPM_P2
2021/06/24 00:00:07;;;;;;;10.88;10.27;;;;;;;;;;5036223;28;20080;-61
2021/06/24 00:02:33;;;;;;;11.98;10.90;;;;;;;;;;5036345;28;20021;-61
2021/06/24 00:04:59;;;;;;;12.20;11.25;;;;;;;;;;5036480;28;20129;-61
2021/06/24 00:07:25;;;;;;;11.50;10.80;;;;;;;;;;5036222;28;20032;-61
2021/06/24 00:09:51;;;;;;;12.20;11.30;;;;;;;;;;5036582;28;20018;-59
2021/06/24 00:12:19;;;;;;;12.18;11.45;;;;;;;;;;5036312;28;20026;-59
2021/06/24 00:14:46;;;;;;;13.63;12.27;;;;;;;;;;5035961;28;20022;-59
2021/06/24 00:17:12;;;;;;;12.65;11.85;;;;;;;;;;5036302;28;20159;-61
2021/06/24 00:19:38;;;;;;;12.57;11.77;;;;;;;;;;5036301;28;20017;-61
2021/06/24 00:22:04;;;;;;;13.30;12.30;;;;;;;;;;5036194;28;20409;-61
2021/06/24 00:24:30;;;;;;;13.55;12.48;;;;;;;;;;5036359;28;20053;-61
2021/06/24 00:26:56;;;;;;;13.52;12.65;;;;;;;;;;5036077;28;20045;-61
2021/06/24 00:29:23;;;;;;;14.05;12.90;;;;;;;;;;5038401;28;20037;-62
2021/06/24 00:34:03;;;;;;;14.50;13.40;;;;;;;;;;5114716;27;20433;-60
2021/06/24 00:36:29;;;;;;;14.25;12.98;;;;;;;;;;5100640;28;20254;-60
2021/06/24 00:38:55;;;;;;;13.80;12.90;;;;;;;;;;5094177;28;20046;-60
2021/06/24 00:41:21;;;;;;;13.65;12.85;;;;;;;;;;5094296;28;20048;-60
2021/06/24 00:43:48;;;;;;;13.98;13.18;;;;;;;;;;5094135;28;20083;-60
2021/06/24 00:46:14;;;;;;;13.90;12.90;;;;;;;;;;5093781;28;20016;-60
2021/06/24 00:48:40;;;;;;;14.90;13.82;;;;;;;;;;5093980;28;20032;-60
2021/06/24 00:51:06;;;;;;;14.60;13.50;;;;;;;;;;5093793;28;20503;-60
2021/06/24 00:53:32;;;;;;;15.55;13.93;;;;;;;;;;5093805;28;20028;-60
2021/06/24 00:55:59;;;;;;;16.20;14.68;;;;;;;;;;5093533;28;20024;-60
2021/06/24 00:58:26;;;;;;;16.45;15.02;;;;;;;;;;5093889;28;20077;-60
2021/06/24 01:00:56;;;;;;;14.75;13.60;;;;;;;;;;5093704;28;20107;-60
2021/06/24 01:04:42;;;;;;;17.50;14.57;;;;;;;;;;5114879;27;20975;-60
2021/06/24 01:07:08;;;;;;;14.40;13.50;;;;;;;;;;5114522;28;20020;-60
2021/06/24 01:09:34;;;;;;;15.15;14.10;;;;;;;;;;5114541;28;20428;-60
2021/06/24 01:12:02;;;;;;;16.42;14.98;;;;;;;;;;5114452;28;20016;-60
2021/06/24 01:15:46;;;;;;;15.77;14.77;;;;;;;;;;5093573;28;20385;-62
2021/06/24 01:18:12;;;;;;;15.23;14.32;;;;;;;;;;5094280;28;20038;-61
2021/06/24 01:20:39;;;;;;;15.75;14.65;;;;;;;;;;5094180;28;20059;-61
2021/06/24 01:23:06;;;;;;;15.23;14.35;;;;;;;;;;5094255;28;20388;-61
2021/06/24 01:25:33;;;;;;;16.25;14.63;;;;;;;;;;5093973;28;20069;-61
2021/06/24 01:28:00;;;;;;;16.35;14.50;;;;;;;;;;5093985;28;20024;-62
2021/06/24 01:30:27;;;;;;;16.55;15.30;;;;;;;;;;5078332;28;20029;-61
2021/06/24 01:34:57;;;;;;;14.45;13.52;;;;;;;;;;5092185;27;1442120;-61
2021/06/24 01:37:23;;;;;;;16.67;15.27;;;;;;;;;;5104610;28;20016;-61
2021/06/24 01:39:50;;;;;;;16.25;15.10;;;;;;;;;;5114614;28;20024;-61
2021/06/24 01:42:16;;;;;;;16.92;15.80;;;;;;;;;;5114602;28;20028;-60
2021/06/24 01:47:42;;;;;;;17.42;16.33;;;;;;;;;;5114690;27;20840;-59
2021/06/24 01:50:09;;;;;;;17.48;15.85;;;;;;;;;;5114311;28;20027;-60
2021/06/24 01:53:04;;;;;;;16.45;15.55;;;;;;;;;;5114708;27;20938;-60
2021/06/24 01:56:03;;;;;;;18.42;16.67;;;;;;;;;;5114670;27;20914;-60
2021/06/24 01:58:30;;;;;;;15.93;15.00;;;;;;;;;;5114570;28;20116;-60
